createdAt,value
2023-09-07T04:01:17.031Z,29.70
2023-09-07T04:03:45.099Z,29.70
2023-09-07T04:06:13.202Z,30.60
2023-09-07T04:08:41.011Z,31.80
2023-09-07T04:11:13.699Z,32.50
2023-09-07T04:13:41.576Z,31.50
2023-09-07T04:16:11.355Z,30.50
2023-09-07T04:18:40.671Z,30.00
2023-09-07T04:21:08.813Z,32.20
2023-09-07T04:23:37.044Z,33.00
2023-09-07T04:26:09.559Z,32.80
2023-09-07T04:28:37.891Z,34.10
2023-09-07T04:31:07.433Z,32.80
2023-09-07T04:33:36.017Z,33.30
2023-09-07T04:36:11.288Z,32.40
2023-09-07T04:38:39.563Z,31.90
2023-09-07T04:41:08.907Z,30.20
2023-09-07T04:43:36.852Z,30.30
2023-09-07T04:46:05.513Z,32.00
2023-09-07T04:53:32.820Z,37.20
2023-09-07T04:56:00.870Z,34.70
2023-09-07T04:58:29.318Z,34.40
2023-09-07T05:01:04.814Z,34.90
2023-09-07T05:03:32.790Z,35.50
2023-09-07T05:06:01.612Z,36.90
2023-09-07T05:08:31.188Z,36.60
2023-09-07T05:11:00.426Z,38.50
2023-09-07T05:13:29.057Z,39.20
2023-09-07T05:15:57.827Z,38.10
2023-09-07T05:18:25.932Z,38.70
2023-09-07T05:20:53.918Z,38.50
2023-09-07T05:23:22.741Z,36.40
2023-09-07T05:25:53.979Z,36.80
2023-09-07T05:28:23.199Z,36.20
2023-09-07T05:30:51.576Z,36.60
2023-09-07T05:33:20.262Z,36.60
2023-09-07T05:38:16.458Z,35.90
2023-09-07T05:40:46.074Z,35.30
2023-09-07T05:43:15.244Z,37.20
2023-09-07T05:45:43.871Z,39.80
2023-09-07T05:48:11.812Z,40.50
2023-09-07T05:50:40.466Z,40.90
2023-09-07T05:53:08.389Z,42.80
2023-09-07T05:55:36.853Z,45.10
2023-09-07T05:58:07.292Z,44.70
2023-09-07T06:00:38.665Z,42.60
2023-09-07T06:03:07.316Z,43.90
2023-09-07T06:05:36.727Z,41.80
2023-09-07T06:08:05.277Z,44.10
2023-09-07T06:10:33.254Z,43.40
2023-09-07T06:13:02.436Z,43.30
2023-09-07T06:18:01.734Z,44.50
2023-09-07T06:20:29.602Z,41.80
2023-09-07T06:22:57.553Z,38.80
2023-09-07T06:25:25.591Z,48.70
2023-09-07T06:27:54.034Z,39.90
2023-09-07T06:30:21.950Z,39.50
2023-09-07T06:32:50.095Z,48.80
2023-09-07T06:35:20.475Z,47.30
2023-09-07T06:37:48.404Z,38.90
2023-09-07T06:40:18.821Z,38.30
2023-09-07T06:42:47.219Z,49.40
2023-09-07T06:45:15.050Z,42.70
2023-09-07T06:47:42.939Z,53.60
2023-09-07T06:50:11.174Z,40.80
2023-09-07T06:52:40.457Z,51.30
2023-09-07T06:57:36.889Z,40.90
2023-09-07T07:00:07.338Z,40.20
2023-09-07T07:02:35.579Z,41.10
2023-09-07T07:05:03.750Z,43.40
2023-09-07T07:07:31.933Z,42.70
2023-09-07T07:10:01.093Z,43.10
2023-09-07T07:12:29.125Z,43.20
2023-09-07T07:14:56.896Z,54.00
2023-09-07T07:17:24.742Z,54.80
2023-09-07T07:19:52.558Z,43.60
2023-09-07T07:22:22.108Z,54.10
2023-09-07T07:24:50.113Z,42.20
2023-09-07T07:27:19.296Z,42.20
2023-09-07T07:29:48.237Z,38.90
2023-09-07T07:32:16.331Z,50.00
2023-09-07T07:34:44.388Z,37.50
2023-09-07T07:37:12.366Z,36.50
2023-09-07T07:39:41.340Z,36.60
2023-09-07T07:42:09.192Z,47.30
2023-09-07T07:44:38.455Z,48.30
2023-09-07T07:47:06.453Z,49.10
2023-09-07T07:49:35.429Z,39.90
2023-09-07T07:52:03.353Z,50.20
2023-09-07T07:54:31.257Z,50.70
2023-09-07T07:56:59.124Z,48.10
2023-09-07T07:59:27.193Z,39.50
2023-09-07T08:01:56.404Z,41.30
2023-09-07T08:04:24.307Z,53.00
2023-09-07T08:06:55.481Z,48.00
2023-09-07T08:09:23.360Z,39.00
2023-09-07T08:11:52.652Z,39.50
2023-09-07T08:14:20.458Z,62.90
2023-09-07T08:16:48.504Z,39.50
2023-09-07T08:19:18.006Z,40.00
2023-09-07T08:21:47.098Z,50.50
2023-09-07T08:24:16.206Z,37.40
2023-09-07T08:29:12.989Z,35.20
2023-09-07T08:31:41.252Z,47.00
2023-09-07T08:34:12.191Z,35.40
2023-09-07T08:36:41.458Z,34.50
2023-09-07T08:39:13.716Z,36.20
2023-09-07T08:42:00.059Z,38.20
2023-09-07T08:44:31.669Z,34.20
2023-09-07T08:47:01.033Z,36.40
2023-09-07T08:49:29.430Z,33.70
2023-09-07T08:52:01.847Z,44.00
2023-09-07T08:54:30.520Z,34.30
2023-09-07T08:56:59.394Z,35.90
2023-09-07T08:59:27.260Z,36.80
2023-09-07T09:01:59.946Z,47.90
2023-09-07T09:04:29.321Z,48.50
2023-09-07T09:06:59.534Z,47.10
2023-09-07T09:09:28.465Z,36.70
2023-09-07T09:11:56.308Z,48.40
2023-09-07T09:14:24.745Z,48.50
2023-09-07T09:16:53.244Z,49.50
2023-09-07T09:19:21.384Z,38.60
2023-09-07T09:21:51.052Z,49.80
2023-09-07T09:24:20.301Z,48.60
2023-09-07T09:26:48.128Z,35.30
2023-09-07T09:29:16.884Z,36.70
2023-09-07T09:31:45.880Z,33.70
2023-09-07T09:34:14.265Z,44.40
2023-09-07T09:36:45.518Z,44.50
2023-09-07T09:39:25.723Z,31.20
2023-09-07T09:41:55.777Z,42.10
2023-09-07T09:44:26.275Z,42.20
2023-09-07T09:46:55.857Z,40.40
2023-09-07T09:49:24.837Z,25.70
2023-09-07T09:51:52.758Z,33.50
2023-09-07T09:54:20.914Z,32.20
2023-09-07T09:56:50.171Z,30.70
2023-09-07T09:59:18.141Z,23.80
2023-09-07T10:01:47.150Z,33.10
2023-09-07T10:04:18.208Z,30.90
2023-09-07T10:06:55.921Z,28.90
2023-09-07T10:09:24.089Z,20.80
2023-09-07T10:11:56.422Z,28.30
2023-09-07T10:14:24.351Z,28.70
2023-09-07T10:16:54.744Z,29.60
2023-09-07T10:19:23.972Z,18.50
2023-09-07T10:21:53.154Z,26.90
2023-09-07T10:24:26.891Z,26.60
2023-09-07T10:27:07.016Z,25.40
2023-09-07T10:29:44.513Z,15.30
2023-09-07T10:32:14.814Z,22.60
2023-09-07T10:34:44.807Z,21.30
2023-09-07T10:37:14.414Z,13.60
2023-09-07T10:39:44.476Z,14.40
2023-09-07T10:44:54.828Z,13.20
2023-09-07T10:47:23.080Z,13.30
2023-09-07T10:49:51.066Z,15.20
2023-09-07T10:52:19.057Z,25.20
2023-09-07T10:54:47.378Z,25.80
2023-09-07T10:57:15.848Z,25.40
2023-09-07T10:59:48.373Z,15.80
2023-09-07T11:02:17.897Z,24.10
2023-09-07T11:04:46.045Z,20.00
2023-09-07T11:07:14.802Z,17.90
2023-09-07T11:09:43.424Z,10.10
2023-09-07T11:12:14.744Z,20.10
2023-09-07T11:14:42.745Z,19.80
2023-09-07T11:17:12.498Z,20.70
2023-09-07T11:19:40.296Z,11.00
2023-09-07T11:22:11.428Z,19.10
2023-09-07T11:24:39.624Z,20.00
2023-09-07T11:27:07.399Z,19.80
2023-09-07T11:29:35.466Z,8.50
2023-09-07T11:32:12.202Z,16.90
2023-09-07T11:34:50.639Z,17.20
2023-09-07T11:37:19.143Z,16.00
2023-09-07T11:39:47.098Z,6.60
2023-09-07T11:42:15.059Z,15.50
2023-09-07T11:44:43.023Z,15.50
2023-09-07T11:47:12.228Z,6.90
2023-09-07T11:49:40.088Z,7.70
2023-09-07T11:52:08.523Z,21.10
2023-09-07T11:54:36.550Z,14.70
2023-09-07T11:57:04.673Z,12.20
2023-09-07T12:02:18.796Z,4.20
2023-09-07T12:04:49.109Z,12.60
2023-09-07T12:07:17.314Z,12.30
2023-09-07T12:09:45.457Z,4.00
2023-09-07T12:12:13.335Z,4.30
2023-09-07T12:14:41.137Z,12.60
2023-09-07T12:22:07.425Z,1.00
2023-09-07T12:24:35.314Z,8.30
2023-09-07T12:27:03.369Z,8.40
2023-09-07T12:29:31.488Z,3.90
2023-09-07T12:31:59.826Z,11.70
2023-09-07T12:34:28.584Z,10.10
2023-09-07T12:36:59.910Z,12.00
2023-09-07T12:39:27.935Z,3.40
2023-09-07T12:44:24.354Z,4.40
2023-09-07T12:46:52.871Z,9.90
2023-09-07T12:49:20.646Z,1.00
2023-09-07T12:51:48.981Z,5.20
2023-09-07T12:54:18.668Z,7.40
2023-09-07T12:56:47.283Z,5.40
2023-09-07T12:59:15.518Z,1.00
2023-09-07T13:01:43.551Z,5.10
2023-09-07T13:04:12.618Z,5.50
2023-09-07T13:06:40.584Z,1.00
2023-09-07T13:09:10.861Z,1.00
2023-09-07T13:11:40.625Z,6.40
2023-09-07T13:14:12.270Z,2.00
2023-09-07T13:16:40.690Z,1.00
2023-09-07T13:19:08.671Z,1.00
2023-09-07T13:36:39.571Z,1.00
2023-09-07T13:39:07.484Z,1.00
2023-09-07T13:41:35.548Z,1.10
2023-09-07T13:44:03.563Z,1.00
2023-09-07T13:46:33.212Z,1.00
2023-09-07T13:49:01.802Z,1.00
2023-09-07T13:51:32.738Z,1.00
2023-09-07T13:54:00.731Z,1.00
2023-09-07T13:56:28.605Z,1.10
2023-09-07T13:58:56.453Z,1.00
2023-09-07T14:01:25.859Z,1.00
2023-09-07T14:03:57.126Z,1.00
2023-09-07T14:06:25.405Z,1.00
2023-09-07T14:08:53.854Z,1.00
2023-09-07T14:11:21.841Z,1.00
2023-09-07T14:13:53.025Z,1.00
2023-09-07T14:16:21.747Z,1.00
2023-09-07T14:21:20.732Z,1.00
2023-09-07T14:23:49.065Z,1.00
2023-09-07T14:26:17.056Z,1.00
2023-09-07T14:28:45.021Z,1.00
2023-09-07T14:31:13.231Z,1.00
2023-09-07T14:33:43.624Z,1.00
2023-09-07T14:36:12.026Z,2.10
2023-09-07T14:38:44.592Z,1.00
2023-09-07T14:41:19.959Z,1.00
2023-09-07T14:43:48.449Z,1.40
2023-09-07T14:46:17.274Z,2.10
2023-09-07T14:48:49.039Z,1.00
2023-09-07T14:51:17.187Z,1.90
2023-09-07T14:53:46.660Z,1.00
2023-09-07T14:56:14.988Z,2.80
2023-09-07T14:58:43.120Z,1.00
2023-09-07T15:01:10.933Z,2.70
2023-09-07T15:03:41.791Z,2.90
2023-09-07T15:06:12.665Z,1.00
2023-09-07T15:08:40.948Z,1.00
2023-09-07T15:11:10.557Z,1.00
2023-09-07T15:13:38.511Z,1.00
2023-09-07T15:16:06.790Z,1.00
2023-09-07T15:21:03.921Z,1.00
2023-09-07T15:23:31.819Z,1.00
2023-09-07T15:25:59.726Z,1.00
2023-09-07T15:30:57.566Z,1.00
2023-09-07T15:33:25.790Z,1.00
2023-09-07T15:35:54.003Z,1.00
2023-09-07T15:38:21.847Z,1.00
2023-09-07T15:40:52.193Z,1.00
2023-09-07T15:43:20.016Z,1.00
2023-09-07T15:45:49.269Z,1.00
2023-09-07T15:48:17.210Z,1.00
2023-09-07T15:50:45.187Z,1.00
2023-09-07T15:53:13.172Z,1.00
2023-09-07T15:55:43.455Z,1.00
2023-09-07T15:58:12.563Z,1.00
2023-09-07T16:03:10.282Z,1.00
2023-09-07T16:05:38.284Z,2.30
2023-09-07T16:08:06.837Z,1.00
2023-09-07T16:10:36.756Z,1.00
2023-09-07T16:13:04.889Z,1.00
2023-09-07T16:15:32.963Z,1.00
2023-09-07T16:18:01.601Z,1.00
2023-09-07T16:20:31.015Z,1.00
2023-09-07T16:22:58.772Z,1.00
2023-09-07T16:25:26.605Z,1.00
2023-09-07T16:27:56.694Z,1.00
2023-09-07T16:30:24.810Z,1.00
2023-09-07T16:32:52.729Z,1.00
2023-09-07T16:35:20.658Z,1.00
2023-09-07T16:37:49.783Z,1.00
2023-09-07T16:40:19.297Z,1.00
2023-09-07T16:42:47.070Z,1.00
2023-09-07T16:45:14.945Z,1.00
2023-09-07T16:47:42.762Z,1.00
2023-09-07T16:50:11.562Z,1.00
2023-09-07T16:52:39.352Z,1.00
2023-09-07T16:55:09.251Z,1.00
2023-09-07T16:57:37.208Z,1.00
2023-09-07T17:00:06.321Z,1.00
2023-09-07T17:02:34.412Z,1.00
2023-09-07T17:05:02.263Z,1.00
2023-09-07T17:09:58.304Z,1.00
2023-09-07T17:12:27.499Z,1.00
2023-09-07T17:14:55.425Z,1.00
2023-09-07T17:17:23.327Z,1.00
2023-09-07T17:22:19.427Z,1.00
2023-09-07T17:27:15.532Z,1.00
2023-09-07T17:29:45.090Z,1.00
2023-09-07T17:32:12.994Z,1.00
2023-09-07T17:34:40.894Z,1.00
2023-09-07T17:37:08.746Z,1.00
2023-09-07T17:42:05.981Z,1.00
2023-09-07T17:44:33.826Z,1.00
2023-09-07T17:49:31.264Z,1.00
2023-09-07T17:54:27.749Z,1.00
2023-09-07T17:56:55.784Z,1.00
2023-09-07T17:59:23.700Z,1.00
2023-09-07T18:01:51.728Z,1.00
2023-09-07T18:04:21.046Z,1.00
2023-09-07T18:06:49.076Z,1.00
2023-09-07T18:09:16.941Z,1.00
2023-09-07T18:11:46.136Z,1.00
2023-09-07T18:14:14.919Z,1.00
2023-09-07T18:16:43.643Z,1.00
2023-09-07T18:19:12.468Z,1.00
2023-09-07T18:21:41.877Z,1.00
2023-09-07T18:24:10.065Z,1.00
2023-09-07T18:26:38.057Z,1.00
2023-09-07T18:29:05.943Z,1.00
2023-09-07T18:31:33.801Z,1.00
2023-09-07T18:34:04.336Z,1.00
2023-09-07T18:36:33.083Z,1.00
2023-09-07T18:39:02.909Z,1.00
2023-09-07T18:41:30.733Z,1.00
2023-09-07T18:43:58.509Z,1.00
2023-09-07T18:46:26.361Z,1.00
2023-09-07T18:48:54.139Z,1.00
2023-09-07T18:51:22.045Z,1.00
2023-09-07T18:53:49.873Z,1.00
2023-09-07T18:56:19.061Z,1.00
2023-09-07T18:58:46.893Z,1.00
2023-09-07T19:01:16.280Z,1.00
2023-09-07T19:03:47.754Z,1.00
2023-09-07T19:06:16.091Z,1.00
2023-09-07T19:08:44.604Z,1.00
2023-09-07T19:11:12.916Z,1.00
2023-09-07T19:13:42.074Z,1.00
2023-09-07T19:16:14.127Z,1.00
2023-09-07T19:18:42.052Z,1.00
2023-09-07T19:21:23.456Z,1.00
2023-09-07T19:23:52.575Z,1.00
2023-09-07T19:26:31.620Z,1.00
2023-09-07T19:29:02.460Z,1.00
2023-09-07T19:33:59.650Z,1.00
2023-09-07T19:36:29.130Z,1.00
2023-09-07T19:39:00.033Z,1.00
2023-09-07T19:41:30.138Z,1.00
2023-09-07T19:43:58.196Z,1.00
2023-09-07T19:46:27.578Z,1.00
2023-09-07T19:48:56.143Z,1.00
2023-09-07T19:51:25.237Z,1.00
2023-09-07T19:56:24.604Z,1.00
2023-09-07T19:58:54.179Z,1.00
2023-09-07T20:01:23.693Z,1.00
2023-09-07T20:03:56.170Z,1.00
2023-09-07T20:06:26.535Z,1.00
2023-09-07T20:08:55.001Z,1.00
2023-09-07T20:11:22.953Z,1.00
2023-09-07T20:13:50.937Z,1.00
2023-09-07T20:18:47.847Z,1.00
2023-09-07T20:21:17.128Z,1.00
2023-09-07T20:23:44.942Z,1.00
2023-09-07T20:26:12.767Z,1.00
2023-09-07T20:28:42.341Z,1.00
2023-09-07T20:31:10.951Z,4.10
2023-09-07T20:33:39.049Z,5.20
2023-09-07T20:36:08.120Z,5.50
2023-09-07T20:38:37.738Z,1.00
2023-09-07T20:41:06.382Z,8.30
2023-09-07T20:43:34.465Z,1.00
2023-09-07T20:46:02.740Z,1.90
2023-09-07T20:48:32.398Z,1.50
2023-09-07T20:53:31.113Z,1.30
2023-09-07T20:56:00.517Z,1.50
2023-09-07T21:03:25.810Z,3.30
2023-09-07T21:05:53.994Z,3.50
2023-09-07T21:08:21.805Z,4.70
2023-09-07T21:10:49.706Z,5.00
2023-09-07T21:13:18.953Z,4.80
2023-09-07T21:15:46.814Z,4.80
2023-09-07T21:18:14.838Z,4.50
2023-09-07T21:20:43.018Z,3.80
2023-09-07T21:23:13.469Z,11.50
2023-09-07T21:25:41.576Z,3.10
2023-09-07T21:28:09.450Z,11.40
2023-09-07T21:30:38.860Z,2.00
2023-09-07T21:33:07.199Z,2.90
2023-09-07T21:38:03.337Z,2.90
2023-09-07T21:40:31.211Z,5.70
2023-09-07T21:43:00.398Z,7.10
2023-09-07T21:45:28.594Z,15.30
2023-09-07T21:47:57.863Z,9.20
2023-09-07T21:50:26.147Z,9.40
2023-09-07T21:52:54.212Z,10.30
2023-09-07T21:55:22.270Z,18.30
2023-09-07T21:57:50.143Z,10.20
2023-09-07T22:00:18.209Z,9.70
2023-09-07T22:02:46.311Z,10.20
2023-09-07T22:05:15.720Z,18.70
2023-09-07T22:07:44.795Z,11.20
2023-09-07T22:10:12.989Z,11.90
2023-09-07T22:12:40.896Z,21.10
2023-09-07T22:15:09.620Z,17.30
2023-09-07T22:17:40.038Z,25.60
2023-09-07T22:20:08.777Z,15.60
2023-09-07T22:22:37.995Z,24.30
2023-09-07T22:25:07.601Z,24.90
2023-09-07T22:27:35.459Z,17.90
2023-09-07T22:32:32.839Z,20.80
2023-09-07T22:35:00.659Z,28.90
2023-09-07T22:37:28.530Z,22.00
2023-09-07T22:39:57.739Z,21.90
2023-09-07T22:42:25.472Z,30.20
2023-09-07T22:47:21.980Z,21.70
2023-09-07T22:49:49.861Z,18.90
2023-09-07T22:54:46.966Z,18.60
2023-09-07T22:57:16.483Z,26.80
2023-09-07T22:59:44.383Z,18.30
2023-09-07T23:02:12.574Z,18.10
2023-09-07T23:04:40.511Z,18.40
2023-09-07T23:07:08.358Z,19.30
2023-09-07T23:09:36.246Z,19.10
2023-09-07T23:12:04.708Z,18.70
2023-09-07T23:14:33.986Z,18.30
2023-09-07T23:17:02.208Z,27.80
2023-09-07T23:24:28.289Z,19.30
2023-09-07T23:26:56.221Z,27.70
2023-09-07T23:29:25.308Z,22.10
2023-09-07T23:31:54.638Z,30.90
2023-09-07T23:34:22.603Z,31.30
2023-09-07T23:36:50.476Z,31.50
2023-09-07T23:39:18.386Z,19.90
2023-09-07T23:41:46.405Z,17.30
2023-09-07T23:44:14.264Z,26.30
2023-09-07T23:46:42.201Z,19.10
2023-09-07T23:49:11.402Z,20.80
2023-09-07T23:51:39.234Z,29.30
2023-09-07T23:54:07.153Z,22.10
2023-09-07T23:56:34.916Z,30.60
2023-09-07T23:59:02.716Z,24.90
